Hyde, United Kingdom
Current Conditions -  °F | °C
As of 2:50 AM on Tuesday 23 Dec 2014 (Local Time) from EGCC Reporting Station
Broken Clouds Broken Clouds  
Wind Chill: 52°   Ceiling: 3800
Heat Index: 52°   Visibility: 6mi
Dew Point: 46°   Wind: 22mph
Humidity: 82%   Direction: 230°SW
Pressure: 29.85"   Gusts: NA
Location:  53.45°N, 2.08°W
Report Text: EGCC 230250Z 23019KT 180V250 9999 SCT018 BKN038 11/08 Q1011
Loading
Personal Weather Stations






























Interactive Weather Map New forecast layout! Learn more

10-Day Weather Forecast

Advertisements
Track Severe Weather on mobile